Terminal Aerodrome Forecast
Issued by NWS Cleveland, OH

Home | Current Version | Previous Version | Graphics & Text | Print | Product List | Glossary On
Versions: 1 2 3 4 5 6 7 8 9 10 11 12 13
028
FTUS41 KCLE 230541
TAFTOL
TAF
KTOL 230541Z 2306/2406 18006KT P6SM OVC200
     FM231100 17006KT P6SM VCSH OVC100
     FM231300 16006KT P6SM OVC060
      TEMPO 2313/2316 -SHRA OVC040
     FM231600 14008KT 5SM -RA OVC040
     FM232100 16010KT 4SM RA BR OVC007
     FM232300 23012G20KT 3SM RA BR OVC007
     FM240100 25015G25KT 6SM -RA BR OVC007
     FM240400 23012KT P6SM -SHRA OVC015=

USA.gov is the U.S. government's official web portal to all federal, state and local government web resources and services.